Time;durP1;ratioP1;P1;durP2;ratioP2;P2;SDS_P1;SDS_P2;PMS_P1;PMS_P2;Temp;Humidity;BMP_temperature;BMP_pressure;BME280_temperature;BME280_humidity;BME280_pressure;Samples;Min_cycle;Max_cycle;Signal;HPM_P1;HPM_P2
2022/10/12 04:02:53;;;;;;;17.45;14.75;;;;;;;;;;5013464;22;20924;-79
2022/10/12 04:05:19;;;;;;;16.35;13.63;;;;;;;;;;5011763;28;20408;-79
2022/10/12 04:07:45;;;;;;;15.80;14.23;;;;;;;;;;5012634;28;20394;-79
2022/10/12 04:10:11;;;;;;;19.85;14.85;;;;;;;;;;5012696;28;20944;-79
2022/10/12 04:12:37;;;;;;;16.13;14.43;;;;;;;;;;5012538;28;20380;-79
2022/10/12 04:15:04;;;;;;;19.65;14.55;;;;;;;;;;5012652;28;20427;-79
2022/10/12 04:17:29;;;;;;;17.15;14.48;;;;;;;;;;5012896;28;20467;-79
2022/10/12 04:19:56;;;;;;;18.42;15.80;;;;;;;;;;5012493;28;20417;-79
2022/10/12 04:22:23;;;;;;;23.30;17.35;;;;;;;;;;5012405;28;20412;-79
2022/10/12 04:24:49;;;;;;;21.42;16.77;;;;;;;;;;5012712;28;20439;-79
2022/10/12 04:27:15;;;;;;;23.43;17.80;;;;;;;;;;5012538;28;20415;-79
2022/10/12 04:29:41;;;;;;;22.63;17.48;;;;;;;;;;5012488;28;20395;-79
2022/10/12 04:32:08;;;;;;;22.92;16.15;;;;;;;;;;5012434;28;20393;-79
2022/10/12 04:34:35;;;;;;;15.50;13.85;;;;;;;;;;5012637;28;20431;-79
2022/10/12 04:37:01;;;;;;;15.90;13.37;;;;;;;;;;5012230;28;20715;-79
2022/10/12 04:39:27;;;;;;;16.88;14.15;;;;;;;;;;5005932;28;20389;-79
2022/10/12 04:41:53;;;;;;;16.52;14.82;;;;;;;;;;5012250;28;20417;-79
2022/10/12 04:44:20;;;;;;;18.38;15.10;;;;;;;;;;5012640;28;20451;-79
2022/10/12 04:46:46;;;;;;;19.70;16.37;;;;;;;;;;5012338;28;20451;-79
2022/10/12 04:49:12;;;;;;;26.00;17.48;;;;;;;;;;5012296;28;20396;-79
2022/10/12 04:51:38;;;;;;;19.83;17.67;;;;;;;;;;5012231;28;20376;-80
2022/10/12 04:54:04;;;;;;;19.42;16.98;;;;;;;;;;5012287;28;20532;-79
2022/10/12 04:56:30;;;;;;;21.70;17.83;;;;;;;;;;5012312;28;20419;-79
2022/10/12 04:58:56;;;;;;;19.02;16.67;;;;;;;;;;5012015;28;20389;-79
2022/10/12 05:01:22;;;;;;;19.42;17.42;;;;;;;;;;5011880;28;20455;-79
2022/10/12 05:03:48;;;;;;;21.65;17.67;;;;;;;;;;5012569;28;20475;-79
2022/10/12 05:06:14;;;;;;;24.70;18.80;;;;;;;;;;5011807;28;20381;-79
2022/10/12 05:08:40;;;;;;;20.70;17.50;;;;;;;;;;5004447;28;20814;-79
2022/10/12 05:11:06;;;;;;;19.50;16.80;;;;;;;;;;5010624;28;20373;-79
2022/10/12 05:13:32;;;;;;;20.95;18.05;;;;;;;;;;5014187;28;20389;-79
2022/10/12 05:15:58;;;;;;;24.17;18.27;;;;;;;;;;5015413;28;20392;-79
2022/10/12 05:18:24;;;;;;;22.27;16.48;;;;;;;;;;5015373;28;20389;-79
2022/10/12 05:20:50;;;;;;;19.77;16.17;;;;;;;;;;4997748;28;20443;-79
2022/10/12 05:23:16;;;;;;;19.30;16.73;;;;;;;;;;4995695;28;20416;-80
2022/10/12 05:25:42;;;;;;;19.95;15.52;;;;;;;;;;5012396;28;20476;-79
2022/10/12 05:28:08;;;;;;;18.23;16.27;;;;;;;;;;5015316;28;20908;-80
2022/10/12 05:30:34;;;;;;;17.70;15.07;;;;;;;;;;5017877;28;20434;-79
2022/10/12 05:33:00;;;;;;;23.73;17.75;;;;;;;;;;5015495;28;20376;-79
2022/10/12 05:35:26;;;;;;;21.77;17.00;;;;;;;;;;5015533;28;20741;-80
2022/10/12 05:37:52;;;;;;;20.85;17.60;;;;;;;;;;5015617;28;20472;-80
2022/10/12 05:40:18;;;;;;;27.92;20.77;;;;;;;;;;5015344;28;20376;-81
2022/10/12 05:42:44;;;;;;;28.35;20.70;;;;;;;;;;5014910;28;20432;-80
2022/10/12 05:45:10;;;;;;;29.02;21.90;;;;;;;;;;5015149;28;20384;-80
2022/10/12 05:47:36;;;;;;;23.85;19.48;;;;;;;;;;5015081;28;20381;-81
2022/10/12 05:50:03;;;;;;;32.08;24.15;;;;;;;;;;5015024;28;20928;-81
2022/10/12 05:52:29;;;;;;;30.10;23.20;;;;;;;;;;5014945;28;20397;-81
2022/10/12 05:54:55;;;;;;;32.17;24.88;;;;;;;;;;5015059;28;20389;-81
2022/10/12 05:57:21;;;;;;;31.38;21.45;;;;;;;;;;5014866;28;20381;-80
2022/10/12 05:59:47;;;;;;;28.02;21.85;;;;;;;;;;5012220;28;20382;-81
2022/10/12 06:02:14;;;;;;;31.38;22.23;;;;;;;;;;5012464;28;20829;-81
2022/10/12 06:04:40;;;;;;;27.50;21.60;;;;;;;;;;5011007;28;20426;-81
2022/10/12 06:07:07;;;;;;;34.40;25.30;;;;;;;;;;5003127;28;20918;-81
2022/10/12 06:09:33;;;;;;;37.88;25.55;;;;;;;;;;5014823;28;20412;-81
2022/10/12 06:11:59;;;;;;;31.13;24.73;;;;;;;;;;5014762;28;20388;-80
2022/10/12 06:14:24;;;;;;;37.90;25.23;;;;;;;;;;5012006;28;20428;-81
2022/10/12 06:16:50;;;;;;;38.33;25.10;;;;;;;;;;5007283;28;20387;-81
2022/10/12 06:19:16;;;;;;;33.88;26.02;;;;;;;;;;5010300;28;20388;-81
2022/10/12 06:21:42;;;;;;;39.03;26.90;;;;;;;;;;5014372;28;20490;-81
2022/10/12 06:24:08;;;;;;;32.87;25.27;;;;;;;;;;5013858;28;20884;-81
2022/10/12 06:26:34;;;;;;;36.40;26.17;;;;;;;;;;5014302;28;20381;-81
2022/10/12 06:29:00;;;;;;;41.35;26.88;;;;;;;;;;5004710;28;20383;-81
2022/10/12 06:31:27;;;;;;;39.15;27.08;;;;;;;;;;4998478;28;20387;-81
2022/10/12 06:33:53;;;;;;;43.10;29.30;;;;;;;;;;4994831;28;20449;-81
2022/10/12 06:36:19;;;;;;;43.97;28.42;;;;;;;;;;5010354;28;20921;-81
2022/10/12 06:38:45;;;;;;;38.83;27.83;;;;;;;;;;5012545;28;20873;-81
2022/10/12 06:41:12;;;;;;;35.97;27.15;;;;;;;;;;5008803;28;20408;-81
2022/10/12 06:43:38;;;;;;;36.05;26.35;;;;;;;;;;4995309;28;20393;-81
2022/10/12 06:46:04;;;;;;;35.88;26.42;;;;;;;;;;4995498;28;20477;-81
2022/10/12 06:48:30;;;;;;;39.65;27.58;;;;;;;;;;4993417;28;20395;-81
2022/10/12 06:50:56;;;;;;;39.43;28.17;;;;;;;;;;5003473;28;20946;-81
2022/10/12 06:53:22;;;;;;;33.70;25.35;;;;;;;;;;5013708;28;20746;-81
2022/10/12 06:55:48;;;;;;;39.33;26.63;;;;;;;;;;5013797;28;20424;-81
2022/10/12 06:58:14;;;;;;;34.55;25.55;;;;;;;;;;5013636;28;20439;-81
2022/10/12 07:00:40;;;;;;;36.08;27.20;;;;;;;;;;5013362;28;20392;-81
2022/10/12 07:03:06;;;;;;;35.97;25.85;;;;;;;;;;5001886;28;20728;-81
2022/10/12 07:05:32;;;;;;;35.58;25.77;;;;;;;;;;4994796;28;20371;-82
2022/10/12 07:07:58;;;;;;;44.08;27.45;;;;;;;;;;4993393;28;20387;-81
2022/10/12 07:10:24;;;;;;;40.97;27.70;;;;;;;;;;4994873;28;20375;-81
2022/10/12 07:12:50;;;;;;;39.72;26.58;;;;;;;;;;4995401;28;20382;-81
2022/10/12 07:15:16;;;;;;;36.43;27.07;;;;;;;;;;4993737;28;20503;-81
2022/10/12 07:17:42;;;;;;;37.72;26.23;;;;;;;;;;4993805;28;20392;-81
2022/10/12 07:20:08;;;;;;;35.22;26.02;;;;;;;;;;4992654;28;20394;-81
2022/10/12 07:22:34;;;;;;;48.42;27.42;;;;;;;;;;4995459;28;20468;-81
2022/10/12 07:25:00;;;;;;;44.22;27.45;;;;;;;;;;5000461;28;20416;-81
2022/10/12 07:27:26;;;;;;;45.90;28.73;;;;;;;;;;5013261;28;20380;-82
2022/10/12 07:29:52;;;;;;;37.15;27.30;;;;;;;;;;5013082;28;20392;-81
2022/10/12 07:32:18;;;;;;;44.33;28.07;;;;;;;;;;5009759;28;20402;-81
2022/10/12 07:34:44;;;;;;;36.83;25.95;;;;;;;;;;4995767;28;20396;-81
2022/10/12 07:37:10;;;;;;;42.25;26.25;;;;;;;;;;4993021;28;20477;-81
2022/10/12 07:39:36;;;;;;;40.00;25.58;;;;;;;;;;5001521;28;20401;-81
2022/10/12 07:42:03;;;;;;;37.33;25.25;;;;;;;;;;4999969;28;20416;-81
2022/10/12 07:44:29;;;;;;;33.45;23.98;;;;;;;;;;5013580;28;20397;-81
2022/10/12 07:46:55;;;;;;;40.20;25.63;;;;;;;;;;5012901;28;20412;-82
2022/10/12 07:49:21;;;;;;;35.65;23.95;;;;;;;;;;5013074;28;20377;-81
2022/10/12 07:51:47;;;;;;;33.93;24.17;;;;;;;;;;5010274;28;20381;-81
2022/10/12 07:54:14;;;;;;;34.28;24.25;;;;;;;;;;4993841;28;20401;-81
2022/10/12 07:56:40;;;;;;;34.97;24.77;;;;;;;;;;4996084;28;20436;-81
2022/10/12 07:59:06;;;;;;;36.90;25.73;;;;;;;;;;4992869;28;20858;-81
2022/10/12 08:01:33;;;;;;;38.22;26.08;;;;;;;;;;4992540;28;21006;-82
2022/10/12 08:03:59;;;;;;;40.30;27.30;;;;;;;;;;5012993;28;20746;-81
2022/10/12 08:06:26;;;;;;;35.55;25.52;;;;;;;;;;5014722;28;20862;-81
2022/10/12 08:08:52;;;;;;;41.03;26.15;;;;;;;;;;5012633;28;20493;-81
2022/10/12 08:11:19;;;;;;;36.93;25.43;;;;;;;;;;5008879;28;20451;-81
2022/10/12 08:13:45;;;;;;;42.60;26.58;;;;;;;;;;5004944;28;20393;-81
2022/10/12 08:16:13;;;;;;;40.33;25.70;;;;;;;;;;5006162;28;20435;-81
2022/10/12 08:18:39;;;;;;;35.57;23.63;;;;;;;;;;4996470;28;20888;-81
2022/10/12 08:21:09;;;;;;;36.60;24.10;;;;;;;;;;5008933;28;20412;-81
2022/10/12 08:23:35;;;;;;;31.63;23.20;;;;;;;;;;5012435;28;20388;-81
2022/10/12 08:26:01;;;;;;;33.90;22.23;;;;;;;;;;5012482;28;20427;-81
2022/10/12 08:28:28;;;;;;;37.35;23.33;;;;;;;;;;5012371;28;20407;-82
2022/10/12 08:30:54;;;;;;;35.08;24.42;;;;;;;;;;4994736;28;20870;-82
2022/10/12 08:33:20;;;;;;;34.40;23.05;;;;;;;;;;4993097;28;20389;-81
2022/10/12 08:35:46;;;;;;;31.43;21.50;;;;;;;;;;5012277;28;20406;-81
2022/10/12 08:38:13;;;;;;;32.53;21.60;;;;;;;;;;5012282;28;20392;-81
2022/10/12 08:40:47;;;;;;;32.97;22.63;;;;;;;;;;5012229;28;20392;-79
2022/10/12 08:43:16;;;;;;;33.13;21.95;;;;;;;;;;5007549;28;20383;-79
2022/10/12 08:45:51;;;;;;;31.35;21.70;;;;;;;;;;5009149;28;21016;-79
2022/10/12 08:48:22;;;;;;;31.20;22.58;;;;;;;;;;5001732;28;20440;-79
2022/10/12 08:51:00;;;;;;;31.98;21.40;;;;;;;;;;5009651;28;20827;-79
2022/10/12 08:53:35;;;;;;;31.77;21.55;;;;;;;;;;5015784;28;20381;-80
2022/10/12 08:56:01;;;;;;;29.67;21.13;;;;;;;;;;5009432;28;20470;-79
2022/10/12 08:58:38;;;;;;;27.52;20.20;;;;;;;;;;5000769;28;20447;-79
2022/10/12 09:01:10;;;;;;;32.20;21.67;;;;;;;;;;5015511;28;20542;-79
2022/10/12 09:03:54;;;;;;;29.83;20.70;;;;;;;;;;5012929;28;20424;-79
2022/10/12 09:06:27;;;;;;;32.67;23.20;;;;;;;;;;4996737;28;20382;-80
2022/10/12 09:09:02;;;;;;;35.17;23.30;;;;;;;;;;5013920;28;20377;-79
2022/10/12 09:11:34;;;;;;;46.38;29.65;;;;;;;;;;5015740;28;20385;-80
2022/10/12 09:14:05;;;;;;;47.67;30.80;;;;;;;;;;5015350;28;20388;-80
2022/10/12 09:16:33;;;;;;;42.05;27.50;;;;;;;;;;5015750;28;20419;-80
2022/10/12 09:19:06;;;;;;;42.85;27.42;;;;;;;;;;5015751;28;20393;-80
2022/10/12 09:21:33;;;;;;;39.13;25.17;;;;;;;;;;5015499;28;20417;-79
2022/10/12 09:24:00;;;;;;;40.67;26.52;;;;;;;;;;4996355;28;20850;-80
2022/10/12 09:26:36;;;;;;;33.27;24.37;;;;;;;;;;5014269;28;20774;-80
2022/10/12 09:29:14;;;;;;;32.08;22.73;;;;;;;;;;5015498;28;20385;-80
2022/10/12 09:31:52;;;;;;;35.08;22.73;;;;;;;;;;5015453;28;20446;-80
2022/10/12 09:34:18;;;;;;;34.10;23.60;;;;;;;;;;5015215;28;20471;-81
2022/10/12 09:36:44;;;;;;;40.45;24.40;;;;;;;;;;5015355;28;20392;-81
2022/10/12 09:39:12;;;;;;;31.83;22.58;;;;;;;;;;5017145;28;20406;-80
2022/10/12 09:41:43;;;;;;;33.50;22.95;;;;;;;;;;5015251;28;20475;-80
2022/10/12 09:44:27;;;;;;;27.70;20.27;;;;;;;;;;5014748;28;20920;-80
2022/10/12 09:47:06;;;;;;;26.90;20.02;;;;;;;;;;5015067;28;20381;-80
2022/10/12 09:49:50;;;;;;;25.77;18.02;;;;;;;;;;5007976;28;20376;-81
2022/10/12 09:52:18;;;;;;;22.73;17.50;;;;;;;;;;5015113;28;20373;-82
2022/10/12 09:54:46;;;;;;;19.80;16.27;;;;;;;;;;5015063;28;20381;-82
2022/10/12 09:57:18;;;;;;;21.50;15.98;;;;;;;;;;5010000;28;20401;-82
2022/10/12 09:59:44;;;;;;;17.23;15.38;;;;;;;;;;5014197;28;20459;-82
2022/10/12 10:02:10;;;;;;;22.88;17.15;;;;;;;;;;5013970;28;20785;-82
2022/10/12 10:04:40;;;;;;;20.10;14.93;;;;;;;;;;5014007;28;20389;-82
2022/10/12 10:07:18;;;;;;;21.70;15.73;;;;;;;;;;5013720;28;20385;-82
2022/10/12 10:09:45;;;;;;;16.65;14.63;;;;;;;;;;5014812;28;20377;-81
2022/10/12 10:12:26;;;;;;;20.10;14.02;;;;;;;;;;5010938;28;20830;-82
2022/10/12 10:14:53;;;;;;;16.77;13.98;;;;;;;;;;5002346;28;20395;-82
2022/10/12 10:17:23;;;;;;;16.33;13.83;;;;;;;;;;5014724;28;20499;-82
2022/10/12 10:19:53;;;;;;;15.90;13.43;;;;;;;;;;5014940;28;20389;-82
2022/10/12 10:22:20;;;;;;;17.00;13.18;;;;;;;;;;5014399;28;20419;-82
2022/10/12 10:24:50;;;;;;;15.50;13.63;;;;;;;;;;5014624;28;20463;-82
2022/10/12 10:27:36;;;;;;;16.47;12.73;;;;;;;;;;5002663;28;20442;-82
2022/10/12 10:30:17;;;;;;;16.60;13.45;;;;;;;;;;5001227;28;20468;-81
2022/10/12 10:32:44;;;;;;;13.75;11.85;;;;;;;;;;5014192;28;20862;-81
2022/10/12 10:35:13;;;;;;;14.07;12.40;;;;;;;;;;5014854;28;20471;-82
2022/10/12 10:37:44;;;;;;;13.70;12.00;;;;;;;;;;5014286;28;20400;-82
2022/10/12 10:40:18;;;;;;;15.57;11.85;;;;;;;;;;5015011;28;20389;-81
2022/10/12 10:42:49;;;;;;;13.05;11.68;;;;;;;;;;5014042;28;20408;-82
2022/10/12 10:45:21;;;;;;;15.20;12.13;;;;;;;;;;5014152;28;20377;-82
2022/10/12 10:47:47;;;;;;;15.45;12.73;;;;;;;;;;5014127;28;20372;-81
2022/10/12 10:50:28;;;;;;;16.15;12.63;;;;;;;;;;5013974;28;20730;-81
2022/10/12 10:52:56;;;;;;;13.97;11.40;;;;;;;;;;5010901;28;20929;-82
2022/10/12 10:55:25;;;;;;;13.40;11.73;;;;;;;;;;5012514;28;20886;-82
2022/10/12 10:58:01;;;;;;;14.13;12.53;;;;;;;;;;5013895;28;20445;-82
2022/10/12 11:00:27;;;;;;;15.45;12.77;;;;;;;;;;5008784;28;20440;-82
2022/10/12 11:02:55;;;;;;;13.05;11.68;;;;;;;;;;5004388;28;20417;-81
2022/10/12 11:05:29;;;;;;;15.60;12.30;;;;;;;;;;5010888;28;20468;-81
2022/10/12 11:07:58;;;;;;;14.40;12.32;;;;;;;;;;5004288;28;20473;-82
2022/10/12 11:10:33;;;;;;;14.10;11.75;;;;;;;;;;4998817;28;20386;-82
2022/10/12 11:13:03;;;;;;;13.20;11.80;;;;;;;;;;4997508;28;20473;-81
2022/10/12 11:15:38;;;;;;;13.30;11.95;;;;;;;;;;5006835;28;20431;-82
2022/10/12 11:18:12;;;;;;;13.63;11.95;;;;;;;;;;5013292;28;20385;-82
2022/10/12 11:20:50;;;;;;;13.10;11.63;;;;;;;;;;5012687;28;20388;-81
2022/10/12 11:23:19;;;;;;;14.05;11.57;;;;;;;;;;5005752;28;20463;-82
2022/10/12 11:26:05;;;;;;;13.13;11.73;;;;;;;;;;5005794;28;20392;-82
2022/10/12 11:28:32;;;;;;;12.93;11.57;;;;;;;;;;5012831;28;20481;-82
2022/10/12 11:30:58;;;;;;;15.90;12.02;;;;;;;;;;5013135;28;20388;-82
2022/10/12 11:33:33;;;;;;;15.45;11.98;;;;;;;;;;4999290;28;20439;-81
2022/10/12 11:36:00;;;;;;;12.75;11.45;;;;;;;;;;5010020;28;20406;-81
2022/10/12 11:38:38;;;;;;;12.27;11.07;;;;;;;;;;4997139;28;20390;-81
2022/10/12 11:41:09;;;;;;;13.18;11.88;;;;;;;;;;4995021;28;20823;-82
2022/10/12 11:43:45;;;;;;;15.88;11.80;;;;;;;;;;4997424;28;20389;-82
2022/10/12 11:46:13;;;;;;;12.55;10.80;;;;;;;;;;5014785;28;20384;-82
2022/10/12 11:48:48;;;;;;;13.82;12.18;;;;;;;;;;5012549;28;20423;-81
2022/10/12 11:51:14;;;;;;;15.10;11.65;;;;;;;;;;5007219;28;20417;-81
2022/10/12 11:53:43;;;;;;;14.20;11.75;;;;;;;;;;5011749;28;20416;-82
2022/10/12 11:56:14;;;;;;;12.88;11.18;;;;;;;;;;5012778;28;20393;-82
2022/10/12 11:58:42;;;;;;;12.27;10.80;;;;;;;;;;5012434;28;20389;-83
2022/10/12 12:01:28;;;;;;;11.63;10.32;;;;;;;;;;5012567;28;20475;-83
2022/10/12 12:04:07;;;;;;;13.25;10.70;;;;;;;;;;5012619;28;20373;-83
2022/10/12 12:06:45;;;;;;;11.85;10.68;;;;;;;;;;5000309;28;20397;-83
2022/10/12 12:09:29;;;;;;;12.67;11.30;;;;;;;;;;4997229;28;20381;-83
2022/10/12 12:12:07;;;;;;;15.27;11.30;;;;;;;;;;5003866;28;20712;-83
2022/10/12 12:14:33;;;;;;;14.70;11.07;;;;;;;;;;5012617;28;20400;-82
2022/10/12 12:17:23;;;;;;;14.40;11.70;;;;;;;;;;5012620;28;20747;-83
2022/10/12 12:19:49;;;;;;;12.60;11.23;;;;;;;;;;5011327;28;20415;-82
2022/10/12 12:22:17;;;;;;;15.13;12.00;;;;;;;;;;5012013;28;20412;-83
2022/10/12 12:24:54;;;;;;;13.65;10.90;;;;;;;;;;5012393;28;20381;-82
2022/10/12 12:27:21;;;;;;;12.67;11.03;;;;;;;;;;5012419;28;20427;-82
2022/10/12 12:29:52;;;;;;;15.30;11.50;;;;;;;;;;5012367;28;20480;-82
2022/10/12 12:32:18;;;;;;;18.52;11.07;;;;;;;;;;5012433;28;20428;-82
2022/10/12 12:34:53;;;;;;;11.80;10.15;;;;;;;;;;5012310;28;20397;-82
2022/10/12 12:37:20;;;;;;;11.20;10.10;;;;;;;;;;5012364;28;20464;-82
2022/10/12 12:39:51;;;;;;;12.77;10.93;;;;;;;;;;5012284;28;20385;-82
2022/10/12 12:42:22;;;;;;;11.90;10.70;;;;;;;;;;5012354;28;20408;-82
2022/10/12 12:44:48;;;;;;;11.60;10.40;;;;;;;;;;5012606;28;20467;-82
2022/10/12 12:47:16;;;;;;;12.20;10.95;;;;;;;;;;5012276;28;20871;-82
2022/10/12 12:49:47;;;;;;;14.60;11.00;;;;;;;;;;5012182;28;20738;-82
2022/10/12 12:52:13;;;;;;;12.18;10.80;;;;;;;;;;5012524;28;20391;-82
2022/10/12 12:55:03;;;;;;;14.80;11.48;;;;;;;;;;5012350;28;20377;-82
2022/10/12 12:57:44;;;;;;;39.75;13.45;;;;;;;;;;5012210;28;20462;-83
2022/10/12 13:00:17;;;;;;;12.30;11.00;;;;;;;;;;5012137;28;20389;-82
2022/10/12 13:02:46;;;;;;;12.90;11.05;;;;;;;;;;5011934;28;20424;-82
2022/10/12 13:05:31;;;;;;;12.50;11.20;;;;;;;;;;5012103;28;20385;-82
2022/10/12 13:08:16;;;;;;;14.45;12.23;;;;;;;;;;5012107;28;20376;-82
2022/10/12 13:10:50;;;;;;;22.07;11.90;;;;;;;;;;5011864;28;20377;-82
2022/10/12 13:13:27;;;;;;;18.15;12.65;;;;;;;;;;5011680;28;20438;-81
2022/10/12 13:16:02;;;;;;;12.82;11.20;;;;;;;;;;5012001;28;20404;-82
2022/10/12 13:18:47;;;;;;;14.93;11.68;;;;;;;;;;5011999;28;20400;-82
2022/10/12 13:21:24;;;;;;;12.13;10.93;;;;;;;;;;4994064;28;21067;-82
2022/10/12 13:23:53;;;;;;;12.87;10.53;;;;;;;;;;5012115;28;20385;-82
2022/10/12 13:26:24;;;;;;;10.17;9.27;;;;;;;;;;5011827;28;20423;-82
2022/10/12 13:28:51;;;;;;;14.23;11.27;;;;;;;;;;4994355;28;20805;-82
2022/10/12 13:31:38;;;;;;;12.02;10.65;;;;;;;;;;5011745;28;20866;-82
2022/10/12 13:34:12;;;;;;;13.15;10.60;;;;;;;;;;5011642;28;20397;-82
2022/10/12 13:36:49;;;;;;;12.25;10.93;;;;;;;;;;5015334;28;20385;-82
2022/10/12 13:39:18;;;;;;;11.13;9.93;;;;;;;;;;5015436;28;20580;-82
2022/10/12 13:41:44;;;;;;;20.80;16.35;;;;;;;;;;5014818;28;20458;-82
2022/10/12 13:44:19;;;;;;;15.13;13.18;;;;;;;;;;5002770;28;20482;-83
2022/10/12 13:46:46;;;;;;;13.85;12.00;;;;;;;;;;5001743;28;20397;-82
2022/10/12 13:49:12;;;;;;;16.65;11.80;;;;;;;;;;4995328;28;20386;-82
2022/10/12 13:51:38;;;;;;;12.65;9.50;;;;;;;;;;5011189;28;20381;-82
2022/10/12 13:54:25;;;;;;;12.25;10.13;;;;;;;;;;5017338;28;20399;-82
2022/10/12 13:56:54;;;;;;;10.93;9.82;;;;;;;;;;5009801;28;20409;-82
2022/10/12 13:59:21;;;;;;;12.52;10.05;;;;;;;;;;5013557;28;20381;-83
2022/10/12 14:01:59;;;;;;;13.37;10.70;;;;;;;;;;5006823;28;20899;-82
2022/10/12 14:04:29;;;;;;;12.30;11.02;;;;;;;;;;5014990;28;20850;-82
2022/10/12 14:06:58;;;;;;;12.95;11.38;;;;;;;;;;5014369;28;20435;-82
2022/10/12 14:09:25;;;;;;;20.73;11.82;;;;;;;;;;5014602;28;20381;-83
2022/10/12 14:11:51;;;;;;;16.80;11.57;;;;;;;;;;5014780;28;20384;-82
2022/10/12 14:14:25;;;;;;;16.90;13.07;;;;;;;;;;5014576;28;20451;-82
2022/10/12 14:16:51;;;;;;;14.57;12.15;;;;;;;;;;5014220;28;20468;-82
2022/10/12 14:19:18;;;;;;;16.60;13.27;;;;;;;;;;5002233;28;20386;-82
2022/10/12 14:21:46;;;;;;;13.45;11.95;;;;;;;;;;5014209;28;20409;-82
2022/10/12 14:24:17;;;;;;;14.32;11.40;;;;;;;;;;5011171;28;20405;-81
2022/10/12 14:26:44;;;;;;;15.50;11.88;;;;;;;;;;5012005;28;20389;-82
2022/10/12 14:29:29;;;;;;;12.82;11.27;;;;;;;;;;5014337;28;20866;-84
2022/10/12 14:31:56;;;;;;;14.90;10.90;;;;;;;;;;5004481;28;20960;-82
2022/10/12 14:34:23;;;;;;;14.10;11.18;;;;;;;;;;5014435;28;20468;-82
2022/10/12 14:36:59;;;;;;;28.13;12.93;;;;;;;;;;5011895;28;20415;-82
2022/10/12 14:39:26;;;;;;;17.85;12.38;;;;;;;;;;5014155;28;20393;-81
2022/10/12 14:41:52;;;;;;;13.65;11.88;;;;;;;;;;5009086;28;20484;-82
2022/10/12 14:44:19;;;;;;;17.63;13.40;;;;;;;;;;5014116;28;20812;-82
2022/10/12 14:46:51;;;;;;;14.77;13.02;;;;;;;;;;5013180;28;20745;-82
2022/10/12 14:49:21;;;;;;;14.88;12.43;;;;;;;;;;5008682;28;20389;-82
2022/10/12 14:51:49;;;;;;;17.55;13.65;;;;;;;;;;5013964;28;20385;-82
2022/10/12 14:54:15;;;;;;;15.95;13.00;;;;;;;;;;5013786;28;20389;-83
2022/10/12 14:56:41;;;;;;;18.90;14.05;;;;;;;;;;5013282;28;20862;-82
2022/10/12 14:59:07;;;;;;;20.33;14.55;;;;;;;;;;4994279;28;20762;-84
2022/10/12 15:01:33;;;;;;;16.38;13.18;;;;;;;;;;5005875;28;20413;-82
2022/10/12 15:03:59;;;;;;;20.63;13.97;;;;;;;;;;5000845;28;20388;-82
2022/10/12 15:06:25;;;;;;;18.65;14.88;;;;;;;;;;5013379;28;20466;-82
2022/10/12 15:08:51;;;;;;;16.77;13.90;;;;;;;;;;5013564;28;20467;-82
2022/10/12 15:11:17;;;;;;;19.95;14.27;;;;;;;;;;5007315;28;20477;-82
2022/10/12 15:13:44;;;;;;;17.35;13.30;;;;;;;;;;5005053;28;20479;-82
2022/10/12 15:16:23;;;;;;;18.63;13.85;;;;;;;;;;5010336;28;20393;-82
2022/10/12 15:18:49;;;;;;;20.13;14.93;;;;;;;;;;5006659;28;20964;-82
2022/10/12 15:21:16;;;;;;;19.05;14.55;;;;;;;;;;5000084;28;20447;-82
2022/10/12 15:23:42;;;;;;;14.85;12.73;;;;;;;;;;5013413;28;20842;-82
2022/10/12 15:26:15;;;;;;;16.38;12.55;;;;;;;;;;5013272;28;20488;-82
2022/10/12 15:28:42;;;;;;;17.65;13.57;;;;;;;;;;5013300;28;20401;-81
2022/10/12 15:31:13;;;;;;;19.83;13.00;;;;;;;;;;5013235;28;20423;-81
2022/10/12 15:33:42;;;;;;;15.90;12.60;;;;;;;;;;5013242;28;20389;-81
2022/10/12 15:36:08;;;;;;;17.05;12.60;;;;;;;;;;5005003;28;20856;-83
2022/10/12 15:38:35;;;;;;;15.50;12.00;;;;;;;;;;5006533;28;20384;-82
2022/10/12 15:41:01;;;;;;;15.85;11.85;;;;;;;;;;5012390;28;20857;-82
2022/10/12 15:43:27;;;;;;;13.85;11.35;;;;;;;;;;5012341;28;20389;-83
2022/10/12 15:45:55;;;;;;;12.73;11.40;;;;;;;;;;5011468;28;20889;-82
2022/10/12 15:48:21;;;;;;;11.07;9.93;;;;;;;;;;5012658;28;20789;-83
2022/10/12 15:50:48;;;;;;;15.40;10.80;;;;;;;;;;5012532;28;20385;-82
2022/10/12 15:53:22;;;;;;;12.93;9.90;;;;;;;;;;5011683;28;20455;-82
2022/10/12 15:55:49;;;;;;;12.52;9.93;;;;;;;;;;5011718;28;20414;-82
2022/10/12 15:58:15;;;;;;;15.50;9.75;;;;;;;;;;5011188;28;20389;-82
2022/10/12 16:00:41;;;;;;;12.80;10.20;;;;;;;;;;5011365;28;20458;-82
2022/10/12 16:03:09;;;;;;;13.77;10.30;;;;;;;;;;5012585;28;20435;-82
2022/10/12 16:05:36;;;;;;;13.32;9.88;;;;;;;;;;4994777;28;20527;-81
2022/10/12 16:08:04;;;;;;;10.32;9.25;;;;;;;;;;5006167;28;20802;-82
2022/10/12 16:10:34;;;;;;;13.13;9.30;;;;;;;;;;5012476;28;20385;-82
2022/10/12 16:13:00;;;;;;;10.45;8.93;;;;;;;;;;5012555;28;20427;-82
2022/10/12 16:15:31;;;;;;;10.75;9.02;;;;;;;;;;5007048;28;20392;-81
2022/10/12 16:17:58;;;;;;;15.32;9.07;;;;;;;;;;5012650;28;20889;-83
2022/10/12 16:20:25;;;;;;;13.30;9.07;;;;;;;;;;5011846;28;20400;-83
2022/10/12 16:22:51;;;;;;;14.48;11.77;;;;;;;;;;5005319;28;20504;-83
2022/10/12 16:25:20;;;;;;;11.88;10.68;;;;;;;;;;5011905;28;20480;-83
2022/10/12 16:27:46;;;;;;;14.10;11.03;;;;;;;;;;5012320;28;20395;-81
2022/10/12 16:30:13;;;;;;;15.23;11.05;;;;;;;;;;5012404;28;20381;-81
2022/10/12 16:32:39;;;;;;;14.30;10.90;;;;;;;;;;5012312;28;20392;-81
2022/10/12 16:35:05;;;;;;;12.93;10.17;;;;;;;;;;5012187;28;20388;-81
2022/10/12 16:37:32;;;;;;;14.32;11.35;;;;;;;;;;5012384;28;20388;-82
2022/10/12 16:39:58;;;;;;;13.63;10.90;;;;;;;;;;5012348;28;20861;-82
2022/10/12 16:42:24;;;;;;;13.07;11.13;;;;;;;;;;5012242;28;20416;-82
2022/10/12 16:44:50;;;;;;;12.32;10.30;;;;;;;;;;5003307;28;20392;-81
2022/10/12 16:47:16;;;;;;;11.57;10.02;;;;;;;;;;5012154;28;20392;-81
2022/10/12 16:49:42;;;;;;;12.63;10.68;;;;;;;;;;5012211;28;20377;-81
2022/10/12 16:52:08;;;;;;;14.20;11.40;;;;;;;;;;5012517;28;20535;-80
2022/10/12 16:54:34;;;;;;;16.48;10.75;;;;;;;;;;5007679;28;20403;-81
2022/10/12 16:57:00;;;;;;;13.10;10.10;;;;;;;;;;5010410;28;20431;-80
2022/10/12 16:59:26;;;;;;;17.03;11.43;;;;;;;;;;4982230;28;20903;-81
2022/10/12 17:01:56;;;;;;;14.13;10.05;;;;;;;;;;5006156;28;20416;-81
2022/10/12 17:04:24;;;;;;;14.27;10.55;;;;;;;;;;5002890;28;20402;-82
2022/10/12 17:06:53;;;;;;;14.80;10.93;;;;;;;;;;5005756;28;20377;-82
2022/10/12 17:09:19;;;;;;;12.52;10.52;;;;;;;;;;5012697;28;20392;-80
2022/10/12 17:11:47;;;;;;;15.18;11.30;;;;;;;;;;5015601;28;20388;-82
2022/10/12 17:14:15;;;;;;;13.63;10.50;;;;;;;;;;5015303;28;20400;-81
2022/10/12 17:19:16;;;;;;;16.27;11.00;;;;;;;;;;5015570;28;20896;-82
2022/10/12 17:21:43;;;;;;;12.88;10.63;;;;;;;;;;5015720;28;20839;-82
2022/10/12 17:24:10;;;;;;;12.13;10.88;;;;;;;;;;5015186;28;20392;-82
2022/10/12 17:26:36;;;;;;;11.70;10.50;;;;;;;;;;5015448;28;20392;-82
2022/10/12 17:29:09;;;;;;;14.20;10.68;;;;;;;;;;5015594;28;20405;-82
2022/10/12 17:31:35;;;;;;;13.70;11.75;;;;;;;;;;5015083;28;20388;-81
2022/10/12 17:34:01;;;;;;;13.90;10.50;;;;;;;;;;5015447;28;20530;-81
2022/10/12 17:36:27;;;;;;;12.90;11.27;;;;;;;;;;5012395;28;20480;-81
2022/10/12 17:38:54;;;;;;;19.00;12.45;;;;;;;;;;5013165;28;20829;-81
2022/10/12 17:41:20;;;;;;;14.27;10.88;;;;;;;;;;5003450;28;20410;-82
2022/10/12 17:43:46;;;;;;;14.65;10.45;;;;;;;;;;4997599;28;20862;-82
2022/10/12 17:46:12;;;;;;;13.50;10.15;;;;;;;;;;5015266;28;20385;-82
2022/10/12 17:48:38;;;;;;;15.32;9.80;;;;;;;;;;5015116;28;20393;-82
2022/10/12 17:51:08;;;;;;;13.00;10.35;;;;;;;;;;4997306;28;20528;-81
2022/10/12 17:53:34;;;;;;;11.40;9.57;;;;;;;;;;5014959;28;20389;-81
2022/10/12 17:56:01;;;;;;;15.07;10.55;;;;;;;;;;5012401;28;20384;-81
2022/10/12 17:58:27;;;;;;;12.50;11.20;;;;;;;;;;5014925;28;20877;-81
2022/10/12 18:00:53;;;;;;;10.85;9.85;;;;;;;;;;5012034;28;20436;-81
2022/10/12 18:03:19;;;;;;;15.07;10.87;;;;;;;;;;5001238;28;20449;-81
2022/10/12 18:05:45;;;;;;;13.55;10.65;;;;;;;;;;5011775;28;20385;-82
2022/10/12 18:08:11;;;;;;;17.42;12.80;;;;;;;;;;5008128;28;20394;-83
2022/10/12 18:10:41;;;;;;;18.00;12.15;;;;;;;;;;4999059;28;20415;-82
2022/10/12 18:13:07;;;;;;;16.50;13.27;;;;;;;;;;5003263;28;20508;-82
2022/10/12 18:15:33;;;;;;;16.63;12.82;;;;;;;;;;5003386;28;20414;-81
2022/10/12 18:17:59;;;;;;;18.35;13.30;;;;;;;;;;5002721;28;20938;-81
2022/10/12 18:20:25;;;;;;;17.17;12.73;;;;;;;;;;5002499;28;20398;-81
2022/10/12 18:22:51;;;;;;;17.58;12.45;;;;;;;;;;5003514;28;20968;-81
2022/10/12 18:25:17;;;;;;;16.05;12.98;;;;;;;;;;5007508;28;20424;-81
2022/10/12 18:27:45;;;;;;;12.57;11.27;;;;;;;;;;5012390;28;20387;-81
2022/10/12 18:30:11;;;;;;;15.20;11.57;;;;;;;;;;5012187;28;20474;-81
2022/10/12 18:32:37;;;;;;;15.48;10.85;;;;;;;;;;5010166;28;20805;-81